createdAt,value
2023-03-18T00:05:20.367Z,58.09
2023-03-18T00:10:24.171Z,58.09
2023-03-18T00:15:40.827Z,58.32
2023-03-18T00:20:54.709Z,58.14
2023-03-18T00:26:10.820Z,58.29
2023-03-18T00:31:40.822Z,58.46
2023-03-18T00:36:57.078Z,58.04
2023-03-18T00:42:26.808Z,58.24
2023-03-18T00:47:47.323Z,58.32
2023-03-18T00:53:14.603Z,58.44
2023-03-18T00:58:39.422Z,58.38
2023-03-18T01:03:59.641Z,58.45
2023-03-18T01:09:23.567Z,58.23
2023-03-18T01:14:27.940Z,58.12
2023-03-18T01:19:55.278Z,58.34
2023-03-18T01:25:18.934Z,58.20
2023-03-18T01:30:26.649Z,58.42
2023-03-18T01:35:31.030Z,58.12
2023-03-18T01:40:40.771Z,58.21
2023-03-18T01:45:57.471Z,58.25
2023-03-18T01:52:11.673Z,58.08
2023-03-18T01:57:17.523Z,58.22
2023-03-18T02:02:34.287Z,58.19
2023-03-18T02:08:03.873Z,58.23
2023-03-18T02:13:27.761Z,58.11
2023-03-18T02:18:47.484Z,58.42
2023-03-18T02:24:24.131Z,58.55
2023-03-18T02:29:45.651Z,58.71
2023-03-18T02:35:14.512Z,58.72
2023-03-18T02:40:27.357Z,58.81
2023-03-18T02:45:55.822Z,58.90
2023-03-18T02:51:10.283Z,58.98
2023-03-18T02:56:25.130Z,58.90
2023-03-18T03:01:40.844Z,58.89
2023-03-18T03:06:47.229Z,59.04
2023-03-18T03:12:37.908Z,59.21
2023-03-18T03:18:04.912Z,59.26
2023-03-18T03:23:11.282Z,59.15
2023-03-18T03:29:15.394Z,59.18
2023-03-18T03:34:38.470Z,59.25
2023-03-18T03:40:02.313Z,59.19
2023-03-18T03:45:26.374Z,59.17
2023-03-18T03:50:33.458Z,59.34
2023-03-18T03:56:00.264Z,59.36
2023-03-18T04:01:06.937Z,59.41
2023-03-18T04:06:27.978Z,59.25
2023-03-18T04:11:48.893Z,59.33
2023-03-18T04:17:08.390Z,59.30
2023-03-18T04:22:52.680Z,59.32
2023-03-18T04:28:41.691Z,59.35
2023-03-18T04:34:25.710Z,59.26
2023-03-18T04:39:49.922Z,59.27
2023-03-18T04:45:15.711Z,59.26
2023-03-18T04:50:30.108Z,59.26
2023-03-18T04:55:34.188Z,59.46
2023-03-18T05:01:25.705Z,59.44
2023-03-18T05:06:35.760Z,59.40
2023-03-18T05:12:02.932Z,59.44
2023-03-18T05:17:23.376Z,59.47
2023-03-18T05:22:34.481Z,59.38
2023-03-18T05:27:59.644Z,59.19
2023-03-18T05:33:23.407Z,58.76
2023-03-18T05:38:35.266Z,58.27
2023-03-18T05:43:59.142Z,57.58
2023-03-18T05:49:03.318Z,56.58
2023-03-18T05:54:12.744Z,54.35
2023-03-18T05:59:19.059Z,52.10
2023-03-18T06:04:27.204Z,50.02
2023-03-18T06:09:31.177Z,47.34
2023-03-18T06:14:35.610Z,44.40
2023-03-18T06:19:39.874Z,43.39
2023-03-18T06:24:46.550Z,42.67
2023-03-18T06:29:52.706Z,41.49
2023-03-18T06:34:56.885Z,40.49
2023-03-18T06:40:00.763Z,40.21
2023-03-18T06:45:04.603Z,39.33
2023-03-18T06:50:18.943Z,40.58
2023-03-18T06:55:22.390Z,41.43
2023-03-18T07:00:26.216Z,41.25
2023-03-18T07:05:30.986Z,41.70
2023-03-18T07:10:35.276Z,42.04
2023-03-18T07:15:46.836Z,42.23
2023-03-18T07:20:50.791Z,41.89
2023-03-18T07:25:54.829Z,41.67
2023-03-18T07:30:58.257Z,42.28
2023-03-18T07:36:02.453Z,42.43
2023-03-18T07:41:06.321Z,43.02
2023-03-18T07:46:09.944Z,43.60
2023-03-18T07:51:13.569Z,42.85
2023-03-18T07:56:17.321Z,42.49
2023-03-18T08:01:20.931Z,42.73
2023-03-18T08:06:25.484Z,43.53
2023-03-18T08:11:29.149Z,43.26
2023-03-18T08:16:32.638Z,43.27
2023-03-18T08:21:57.612Z,42.97
2023-03-18T08:27:01.132Z,43.41
2023-03-18T08:32:08.608Z,43.09
2023-03-18T08:37:12.258Z,42.97
2023-03-18T08:42:16.224Z,42.63
2023-03-18T08:47:20.262Z,42.57
2023-03-18T08:52:23.894Z,42.05
2023-03-18T08:57:28.093Z,42.33
2023-03-18T09:02:31.900Z,42.36
2023-03-18T09:07:36.398Z,41.23
2023-03-18T09:12:43.884Z,41.40
2023-03-18T09:18:03.760Z,42.12
2023-03-18T09:23:14.109Z,41.18
2023-03-18T09:28:18.075Z,40.91
2023-03-18T09:33:22.399Z,41.21
2023-03-18T09:38:28.149Z,41.20
2023-03-18T09:43:47.132Z,40.52
2023-03-18T09:48:57.018Z,40.41
2023-03-18T09:54:24.399Z,40.31
2023-03-18T09:59:50.885Z,40.21
2023-03-18T10:05:02.034Z,39.68
2023-03-18T10:10:42.504Z,39.49
2023-03-18T10:15:49.337Z,39.84
2023-03-18T10:21:10.620Z,39.35
2023-03-18T10:26:24.387Z,39.42
2023-03-18T10:31:51.067Z,38.77
2023-03-18T10:37:06.971Z,38.45
2023-03-18T10:42:19.846Z,38.90
2023-03-18T10:47:29.231Z,38.51
2023-03-18T10:52:39.992Z,38.11
2023-03-18T10:57:43.274Z,38.11
2023-03-18T11:02:47.475Z,37.86
2023-03-18T11:08:03.706Z,37.79
2023-03-18T11:13:07.701Z,37.66
2023-03-18T11:18:19.501Z,35.76
2023-03-18T11:24:21.032Z,37.09
2023-03-18T11:29:33.228Z,36.83
2023-03-18T11:34:37.815Z,37.04
2023-03-18T11:39:41.762Z,36.60
2023-03-18T11:44:45.291Z,36.47
2023-03-18T11:49:48.509Z,36.53
2023-03-18T11:55:08.265Z,36.53
2023-03-18T12:00:43.888Z,36.72
2023-03-18T12:06:13.249Z,37.10
2023-03-18T12:11:38.665Z,36.35
2023-03-18T12:16:48.910Z,36.41
2023-03-18T12:22:04.374Z,36.60
2023-03-18T12:27:13.752Z,36.43
2023-03-18T12:32:32.086Z,36.15
2023-03-18T12:38:06.446Z,36.60
2023-03-18T12:43:29.093Z,36.88
2023-03-18T12:48:52.385Z,36.89
2023-03-18T12:54:01.029Z,36.64
2023-03-18T12:59:16.713Z,36.36
2023-03-18T13:04:23.437Z,36.04
2023-03-18T13:09:37.280Z,36.70
2023-03-18T13:15:12.793Z,36.35
2023-03-18T13:20:18.672Z,36.52
2023-03-18T13:25:33.652Z,36.70
2023-03-18T13:30:55.555Z,36.28
2023-03-18T13:36:22.546Z,36.28
2023-03-18T13:42:03.235Z,36.96
2023-03-18T13:47:09.320Z,36.73
2023-03-18T13:52:39.780Z,36.81
2023-03-18T13:57:48.079Z,36.51
2023-03-18T14:03:17.577Z,37.07
2023-03-18T14:08:47.475Z,37.13
2023-03-18T14:13:52.854Z,37.08
2023-03-18T14:18:58.829Z,36.61
2023-03-18T14:24:17.283Z,36.47
2023-03-18T14:29:26.717Z,36.55
2023-03-18T14:34:33.323Z,36.58
2023-03-18T14:39:48.522Z,37.09
2023-03-18T14:44:55.020Z,37.10
2023-03-18T14:50:14.960Z,37.41
2023-03-18T14:55:27.260Z,37.70
2023-03-18T15:00:35.539Z,38.03
2023-03-18T15:05:42.181Z,38.47
2023-03-18T15:10:49.811Z,38.44
2023-03-18T15:15:56.570Z,38.42
2023-03-18T15:21:04.335Z,38.89
2023-03-18T15:26:09.938Z,38.93
2023-03-18T15:31:14.037Z,39.36
2023-03-18T15:36:17.410Z,39.91
2023-03-18T15:41:22.764Z,40.20
2023-03-18T15:46:31.097Z,40.41
2023-03-18T15:51:42.325Z,40.79
2023-03-18T15:56:49.260Z,40.70
2023-03-18T16:01:54.906Z,40.68
2023-03-18T16:06:59.588Z,41.07
2023-03-18T16:12:13.999Z,41.30
2023-03-18T16:17:22.302Z,41.53
2023-03-18T16:22:35.957Z,41.60
2023-03-18T16:27:44.887Z,41.72
2023-03-18T16:32:48.413Z,42.07
2023-03-18T16:38:13.428Z,41.99
2023-03-18T16:43:19.870Z,42.18
2023-03-18T16:48:23.768Z,42.35
2023-03-18T16:53:29.768Z,42.45
2023-03-18T16:58:35.429Z,42.76
2023-03-18T17:03:42.844Z,42.79
2023-03-18T17:08:46.167Z,42.72
2023-03-18T17:13:49.392Z,42.85
2023-03-18T17:18:55.061Z,43.03
2023-03-18T17:23:58.916Z,43.06
2023-03-18T17:29:26.534Z,43.09
2023-03-18T17:34:29.813Z,43.34
2023-03-18T17:39:36.700Z,43.36
2023-03-18T17:44:39.814Z,43.54
2023-03-18T17:49:43.131Z,43.58
2023-03-18T17:54:47.162Z,43.69
2023-03-18T17:59:51.684Z,43.83
2023-03-18T18:04:54.895Z,43.89
2023-03-18T18:10:00.989Z,43.98
2023-03-18T18:15:05.998Z,44.22
2023-03-18T18:20:15.406Z,44.40
2023-03-18T18:25:21.835Z,44.40
2023-03-18T18:30:26.308Z,44.65
2023-03-18T18:35:29.575Z,44.68
2023-03-18T18:40:32.902Z,44.71
2023-03-18T18:45:36.489Z,45.00
2023-03-18T18:50:41.549Z,45.17
2023-03-18T18:55:45.029Z,45.28
2023-03-18T19:00:51.400Z,45.49
2023-03-18T19:05:55.500Z,45.63
2023-03-18T19:11:01.646Z,45.78
2023-03-18T19:16:13.802Z,45.81
2023-03-18T19:21:17.342Z,45.88
2023-03-18T19:26:21.681Z,46.22
2023-03-18T19:31:30.825Z,46.44
2023-03-18T19:36:41.746Z,46.71
2023-03-18T19:41:47.288Z,46.91
2023-03-18T19:46:53.991Z,46.98
2023-03-18T19:51:57.622Z,47.18
2023-03-18T19:57:09.813Z,47.47
2023-03-18T20:02:33.542Z,47.53
2023-03-18T20:07:37.249Z,47.75
2023-03-18T20:12:47.769Z,47.83
2023-03-18T20:17:55.290Z,48.02
2023-03-18T20:23:02.000Z,48.10
2023-03-18T20:28:07.250Z,48.16
2023-03-18T20:33:13.331Z,48.33
2023-03-18T20:38:49.828Z,48.42
2023-03-18T20:43:53.258Z,48.60
2023-03-18T20:48:57.995Z,48.73
2023-03-18T20:54:01.506Z,48.86
2023-03-18T20:59:35.171Z,49.06
2023-03-18T21:04:38.715Z,49.15
2023-03-18T21:09:43.383Z,49.49
2023-03-18T21:14:56.902Z,49.64
2023-03-18T21:20:15.243Z,49.73
2023-03-18T21:26:02.271Z,49.96
2023-03-18T21:31:16.569Z,50.15
2023-03-18T21:36:30.206Z,50.56
2023-03-18T21:41:34.224Z,50.53
2023-03-18T21:46:37.833Z,50.61
2023-03-18T21:51:41.793Z,50.91
2023-03-18T21:56:45.584Z,50.95
2023-03-18T22:01:49.216Z,51.07
2023-03-18T22:06:52.646Z,51.20
2023-03-18T22:11:55.897Z,51.48
2023-03-18T22:16:59.217Z,51.62
2023-03-18T22:22:02.704Z,51.60
2023-03-18T22:27:06.593Z,51.80
2023-03-18T22:33:17.667Z,51.94
2023-03-18T22:38:23.232Z,52.30
2023-03-18T22:43:37.647Z,52.33
2023-03-18T22:48:41.225Z,52.55
2023-03-18T22:53:51.306Z,52.83
2023-03-18T22:58:55.032Z,53.04
2023-03-18T23:03:58.994Z,53.17
2023-03-18T23:09:02.845Z,53.47
2023-03-18T23:14:07.371Z,53.57
2023-03-18T23:19:10.740Z,53.62
2023-03-18T23:24:15.563Z,53.91
2023-03-18T23:29:30.162Z,54.21
2023-03-18T23:34:33.458Z,54.19
2023-03-18T23:39:57.235Z,54.56
2023-03-18T23:45:00.942Z,54.63
2023-03-18T23:50:07.651Z,54.67
2023-03-18T23:55:32.699Z,54.94
